Stations météo

réclame
Mon MeteoGroup
Mumbles, Grande-Bretagne (3609): Température de l'air & dewpoint: 19.11.2017 01:00:00 - 25.11.2017 01:00:00 (GMT)Mumbles, Grande-Bretagne (3609): Vitesse du vent & gusts: 19.11.2017 01:00:00 - 25.11.2017 01:00:00 (GMT)Mumbles, Grande-Bretagne (3609): Direction du vent: 19.11.2017 01:00:00 - 25.11.2017 01:00:00 (GMT)Mumbles, Grande-Bretagne (3609): reduced air pressure: 19.11.2017 01:00:00 - 25.11.2017 01:00:00 (GMT)Mumbles, Grande-Bretagne (3609): Quantités de précipitations: 19.11.2017 01:00:00 - 25.11.2017 01:00:00 (GMT)
Date & Time tt [°C] td [°C] ff [km/h] ff [knt] fx [km/h] fx [knt] dd ppp [hPa] rr [mm]
25.11.2017 01:00:00 4,0 2,0 11 6 - - NW 1015,0 0,0
25.11.2017 00:00:00 4,1 2,2 11 6 - - WNW 1014,9 0,0
24.11.2017 23:00:00 3,8 2,3 13 7 - - WNW 1014,7 0,0
24.11.2017 22:00:00 3,9 2,4 9 5 - - N 1014,4 0,2
24.11.2017 21:00:00 4,0 1,8 29 16 52 28 NW 1014,2 0,0
24.11.2017 20:00:00 6,6 -0,2 9 5 - - WNW 1013,4 0,0
24.11.2017 19:00:00 6,5 -0,9 13 7 - - WNW 1013,5 0,0
24.11.2017 18:00:00 6,7 1,1 13 7 - - WNW 1013,8 0,0
24.11.2017 17:00:00 6,6 1,4 11 6 - - WNW 1013,5 0,0
24.11.2017 16:00:00 7,2 1,1 4 2 - - WNW 1013,5 0,0
24.11.2017 15:00:00 9,0 0,9 9 5 - - NW 1013,1 0,0
24.11.2017 14:00:00 9,5 1,0 9 5 - - W 1013,1 0,0
24.11.2017 13:00:00 9,6 0,8 13 7 - - W 1013,1 0,0
24.11.2017 12:00:00 9,3 3,2 5 3 - - S 1013,2 0,0
24.11.2017 11:00:00 6,7 3,3 5 3 - - NNE 1013,2 0,0
24.11.2017 10:00:00 4,8 2,8 9 5 - - N 1012,7 0,0
24.11.2017 09:00:00 4,8 2,6 9 5 - - N 1011,9 0,0
24.11.2017 08:00:00 5,1 1,9 9 5 - - N 1011,0 0,0
24.11.2017 07:00:00 5,7 1,3 11 6 - - NNW 1010,5 0,0
24.11.2017 06:00:00 5,9 1,6 9 5 - - NNW 1009,7 -
24.11.2017 05:00:00 6,1 1,4 11 6 - - NNW 1008,9 0,0
24.11.2017 04:00:00 6,3 1,5 13 7 - - NNW 1008,2 0,0
24.11.2017 03:00:00 6,4 4,0 8 4 - - N 1008,0 0,0
24.11.2017 02:00:00 6,9 3,2 5 3 - - N 1007,6 0,0
24.11.2017 01:00:00 7,3 2,1 4 2 - - N 1007,1 0,0
24.11.2017 00:00:00 7,7 1,7 13 7 - - NNW 1006,3 0,0
23.11.2017 23:00:00 7,7 5,0 8 4 - - N 1006,2 0,0
23.11.2017 22:00:00 8,7 5,6 24 13 - - SW 1006,4 0,0
23.11.2017 21:00:00 8,3 3,4 0 0 - - N 1006,6 0,0
23.11.2017 20:00:00 8,5 2,3 11 6 - - NW 1005,9 0,0
23.11.2017 19:00:00 8,5 3,5 9 5 - - NW 1005,5 0,0
23.11.2017 18:00:00 8,5 3,6 9 5 - - WNW 1005,4 0,0
23.11.2017 17:00:00 8,3 3,8 9 5 - - NW 1004,3 0,0
23.11.2017 16:00:00 8,6 3,8 8 4 - - W 1003,6 0,0
23.11.2017 15:00:00 9,4 4,2 16 9 46 25 W 1002,3 0,0
23.11.2017 14:00:00 10,9 5,0 31 17 61 33 W 1001,2 0,0
23.11.2017 13:00:00 11,1 5,5 41 22 87 47 W 1000,0 0,0
23.11.2017 12:00:00 11,5 6,7 70 38 98 53 WSW 997,8 0,0
23.11.2017 11:00:00 10,1 5,1 80 43 98 53 WSW 996,9 0,0
23.11.2017 10:00:00 11,0 4,6 72 39 - - WSW 996,1 0,2
23.11.2017 09:00:00 9,1 5,7 63 34 89 48 WSW 995,2 0,0
23.11.2017 08:00:00 9,9 3,2 63 34 74 40 WSW 993,9 0,0
23.11.2017 07:00:00 8,7 3,1 34 18 52 28 W 993,5 0,0
23.11.2017 06:00:00 7,8 3,2 34 18 - - W 992,6 0,0
23.11.2017 05:00:00 7,0 3,5 16 9 - - W 991,2 0,2
23.11.2017 04:00:00 7,5 6,9 18 10 54 29 W 989,2 0,0
23.11.2017 03:00:00 8,6 7,9 31 17 50 27 WNW 986,9 0,0
23.11.2017 02:00:00 11,3 10,7 22 12 54 29 W 985,2 0,4
23.11.2017 01:00:00 11,8 11,4 54 29 67 36 WSW 983,9 3,8
23.11.2017 00:00:00 12,8 11,8 52 28 65 35 SSW 984,1 0,0
22.11.2017 23:00:00 12,7 11,8 52 28 76 41 SW 984,3 0,0
22.11.2017 22:00:00 13,0 11,7 67 36 94 51 SW 984,0 0,0
22.11.2017 21:00:00 12,9 11,8 61 33 87 47 SSW 984,1 0,0
22.11.2017 20:00:00 13,5 12,2 54 29 70 38 SSW 984,5 0,2
22.11.2017 19:00:00 13,2 12,2 61 33 76 41 SSW 985,3 0,6
22.11.2017 18:00:00 13,6 11,9 57 31 83 45 SSW 986,1 0,0
22.11.2017 17:00:00 13,8 11,8 67 36 91 49 SSW 986,7 0,0
22.11.2017 16:00:00 13,7 12,5 70 38 89 48 SSW 987,1 0,4
22.11.2017 15:00:00 14,4 12,2 65 35 80 43 S 988,5 0,0
22.11.2017 14:00:00 14,4 12,4 52 28 76 41 S 990,6 0,0
22.11.2017 13:00:00 14,3 12,3 63 34 74 40 SSW 992,0 0,0
22.11.2017 12:00:00 13,9 12,4 57 31 70 38 S 992,7 0,2
22.11.2017 11:00:00 14,1 11,8 50 27 72 39 S 993,9 0,0
22.11.2017 10:00:00 14,0 11,9 54 29 63 34 S 995,2 0,0
22.11.2017 09:00:00 13,9 11,8 54 29 67 36 SSW 995,5 0,0
22.11.2017 08:00:00 13,5 12,0 50 27 59 32 SSW 996,4 0,0
22.11.2017 07:00:00 13,6 11,8 52 28 59 32 SSW 996,9 0,0
22.11.2017 06:00:00 13,5 12,0 48 26 67 36 SSW 998,0 0,2
22.11.2017 05:00:00 13,4 12,2 57 31 68 37 SSW 998,9 0,0
22.11.2017 04:00:00 13,2 12,2 55 30 67 36 SSW 999,8 0,0
22.11.2017 03:00:00 12,9 12,4 54 29 67 36 SSW 1000,9 0,0
22.11.2017 02:00:00 12,7 12,7 50 27 67 36 SW 1001,4 0,2
22.11.2017 01:00:00 12,9 12,9 57 31 67 36 SW 1002,2 0,2
22.11.2017 00:00:00 12,9 12,9 52 28 61 33 SW 1002,8 0,8
21.11.2017 23:00:00 12,9 12,9 46 25 57 31 SW 1003,4 -
21.11.2017 22:00:00 13,0 13,0 50 27 63 34 SW 1003,6 0,4
21.11.2017 21:00:00 12,9 12,9 52 28 67 36 SW 1003,5 0,4
21.11.2017 20:00:00 13,0 13,0 54 29 63 34 SW 1004,1 0,6
21.11.2017 19:00:00 12,9 12,9 50 27 67 36 SW 1004,7 2,0
21.11.2017 18:00:00 12,9 12,8 61 33 72 39 SW 1005,2 1,2
21.11.2017 17:00:00 12,8 12,7 57 31 67 36 SSW 1005,6 1,0
21.11.2017 16:00:00 13,1 12,6 50 27 59 32 SW 1006,4 0,0
21.11.2017 15:00:00 13,0 12,5 44 24 52 28 SW 1007,3 -
21.11.2017 14:00:00 13,0 12,5 44 24 57 31 SW 1008,0 0,2
21.11.2017 13:00:00 12,8 12,0 44 24 52 28 SSW 1009,0 0,0
21.11.2017 12:00:00 12,0 11,0 35 19 - - SSW 1010,0 0,0
21.11.2017 11:00:00 12,4 10,8 35 19 - - SSW 1011,1 0,0
21.11.2017 10:00:00 12,5 10,7 26 14 - - SW 1011,6 -
21.11.2017 09:00:00 12,4 10,5 34 18 - - SW 1011,8 0,0
21.11.2017 08:00:00 12,2 10,6 24 13 - - SW 1011,8 0,0
21.11.2017 07:00:00 12,2 10,7 31 17 - - SSW 1011,8 0,0
21.11.2017 06:00:00 12,3 11,2 31 17 - - WSW 1012,4 0,0
21.11.2017 05:00:00 12,4 11,2 37 20 48 26 WSW 1012,8 0,0
21.11.2017 04:00:00 12,4 11,4 41 22 50 27 WSW 1012,5 0,0
21.11.2017 03:00:00 12,3 11,7 34 18 - - WSW 1013,1 0,0
21.11.2017 02:00:00 12,4 11,9 37 20 - - WSW 1013,4 0,0
21.11.2017 01:00:00 12,3 12,0 35 19 46 25 WSW 1013,8 0,0
21.11.2017 00:00:00 12,2 12,2 37 20 46 25 SW 1014,0 0,0
20.11.2017 23:00:00 12,3 12,3 41 22 48 26 WSW 1014,0 0,4
20.11.2017 22:00:00 12,3 12,3 35 19 - - WSW 1014,0 0,4
20.11.2017 21:00:00 12,5 12,5 35 19 - - WSW 1014,3 0,2
20.11.2017 20:00:00 12,4 12,4 37 20 46 25 WSW 1014,2 0,4
20.11.2017 19:00:00 12,4 12,4 41 22 48 26 WSW 1014,2 0,6
20.11.2017 18:00:00 12,4 12,4 39 21 54 29 WSW 1014,1 0,8
20.11.2017 17:00:00 12,4 12,4 46 25 55 30 WSW 1013,9 0,6
20.11.2017 16:00:00 12,3 12,3 42 23 54 29 WSW 1014,1 -
20.11.2017 15:00:00 12,3 12,3 46 25 57 31 WSW 1014,3 3,8
20.11.2017 14:00:00 12,3 12,3 46 25 55 30 WSW 1014,5 1,2
20.11.2017 13:00:00 12,3 12,1 46 25 59 32 WSW 1014,7 0,2
20.11.2017 12:00:00 12,3 12,1 52 28 63 34 WSW 1014,9 0,0
20.11.2017 11:00:00 12,1 11,9 54 29 65 35 WSW 1015,3 0,4
20.11.2017 10:00:00 12,0 11,6 50 27 63 34 WSW 1015,9 0,2
20.11.2017 09:00:00 12,0 11,5 52 28 68 37 WSW 1016,1 0,2
20.11.2017 08:00:00 12,1 11,2 54 29 70 38 WSW 1016,3 0,0
20.11.2017 07:00:00 11,9 11,2 52 28 65 35 WSW 1016,2 0,0
20.11.2017 06:00:00 11,5 11,1 59 32 70 38 WSW 1016,5 -
20.11.2017 05:00:00 11,5 10,9 55 30 68 37 WSW 1016,8 0,2
20.11.2017 04:00:00 11,6 10,6 55 30 67 36 WSW 1017,5 0,2
20.11.2017 03:00:00 11,8 10,0 52 28 61 33 SW 1018,2 0,2
20.11.2017 02:00:00 12,1 9,3 41 22 52 28 SW 1019,2 0,0
20.11.2017 01:00:00 11,8 9,0 39 21 55 30 SW 1020,1 0,0
20.11.2017 00:00:00 11,0 10,3 29 16 55 30 SW 1021,1 0,0
19.11.2017 23:00:00 11,8 9,8 31 17 - - WSW 1021,6 0,0
19.11.2017 22:00:00 11,8 10,2 31 17 - - SW 1022,2 0,0
19.11.2017 21:00:00 11,1 10,5 37 20 - - SSW 1022,3 0,2
19.11.2017 20:00:00 10,8 9,7 16 9 - - S 1023,1 0,0
19.11.2017 19:00:00 10,0 9,2 15 8 - - S 1023,5 0,0
19.11.2017 18:00:00 10,4 8,0 13 7 - - S 1023,8 0,0
19.11.2017 17:00:00 10,3 6,7 9 5 - - S 1024,0 0,0
19.11.2017 16:00:00 9,9 5,6 11 6 - - SSE 1024,3 0,0
19.11.2017 15:00:00 9,8 4,8 9 5 - - SSE 1024,7 0,0
19.11.2017 14:00:00 9,6 4,5 4 2 - - SE 1025,0 0,0
19.11.2017 13:00:00 9,1 4,3 5 3 - - E 1025,3 0,0
19.11.2017 12:00:00 8,8 4,4 4 2 - - NE 1025,8 0,0
19.11.2017 11:00:00 8,1 4,9 5 3 - - NE 1025,7 0,0
19.11.2017 10:00:00 7,0 5,4 2 1 - - NNE 1025,7 0,0
19.11.2017 09:00:00 7,4 5,8 8 4 - - NE 1025,4 0,0
19.11.2017 08:00:00 6,3 4,4 5 3 - - N 1025,4 -
19.11.2017 07:00:00 6,8 4,3 9 5 - - N 1025,0 0,0
19.11.2017 06:00:00 6,7 4,9 9 5 - - N 1024,8 0,0
19.11.2017 05:00:00 6,5 5,3 8 4 - - N 1024,6 0,0
19.11.2017 04:00:00 6,5 5,4 11 6 - - N 1024,4 0,0
19.11.2017 03:00:00 6,5 5,6 9 5 - - N 1024,4 0,0
19.11.2017 02:00:00 7,4 6,3 9 5 - - NW 1024,3 0,0
19.11.2017 01:00:00 7,9 6,4 4 2 - - W 1024,0 0,0

tt = Température de l'air
td = dewpoint
ff = Vitesse du vent
fx = gusts
dd = Direction du vent
ppp = reduced air pressure
rr = Quantités de précipitations

stations d'obs. à proximité